Terminal Aerodrome Forecast
Issued by NWS

Home | Current Version | Previous Version | Text Only | Print | Product List | Glossary On
Versions: 1 2 3 4 5 6 7 8 9 10 11 12 13 14 15 16 17 18 19 20 21 22 23 24 25 26 27 28 29 30 31 32 33 34 35 36 37 38
226
FTUS45 KTWC 302336
TAFOLS
TAF
KOLS 302336Z 3100/3124 14012KT P6SM -TSRA SCT050 BKN070CB BKN100
      TEMPO 3100/3102 VRB20G35KT 3SM TSRA SCT040 BKN060CB
     FM310200 15005KT P6SM VCSH BKN060 BKN090
     FM310600 08005KT P6SM SCT110 BKN200
     FM311000 VRB03KT P6SM FEW120 SCT250
     FM311900 26010KT P6SM SCT070=

USA.gov is the U.S. government's official web portal to all federal, state and local government web resources and services.